Time;durP1;ratioP1;P1;durP2;ratioP2;P2;SDS_P1;SDS_P2;PMS_P1;PMS_P2;Temp;Humidity;BMP_temperature;BMP_pressure;BME280_temperature;BME280_humidity;BME280_pressure;Samples;Min_cycle;Max_cycle;Signal;HPM_P1;HPM_P2
2022/10/26 00:02:11;;;;;;;12.83;5.73;;;11.70;99.90;;;;;;5055574;28;20236;-79
2022/10/26 00:04:38;;;;;;;8.97;5.63;;;11.70;99.90;;;;;;5053964;28;20232;-80
2022/10/26 00:07:05;;;;;;;10.37;5.50;;;11.70;99.90;;;;;;5055639;28;20212;-80
2022/10/26 00:09:32;;;;;;;9.03;5.73;;;11.70;99.90;;;;;;5054585;28;20316;-80
2022/10/26 00:11:59;;;;;;;9.73;4.60;;;11.70;99.90;;;;;;5055187;28;20203;-80
2022/10/26 00:14:26;;;;;;;11.50;5.73;;;11.70;99.90;;;;;;5054720;28;20222;-79
2022/10/26 00:16:54;;;;;;;9.77;5.60;;;11.70;99.90;;;;;;5054905;28;20198;-80
2022/10/26 00:19:22;;;;;;;9.13;5.33;;;11.70;99.90;;;;;;5054142;28;20747;-80
2022/10/26 00:21:49;;;;;;;9.43;5.70;;;11.70;99.90;;;;;;5054825;28;20202;-79
2022/10/26 00:24:16;;;;;;;8.33;5.53;;;11.70;99.90;;;;;;5068125;28;20202;-80
2022/10/26 00:26:43;;;;;;;11.70;6.47;;;11.60;99.90;;;;;;5071999;28;20633;-80
2022/10/26 00:29:11;;;;;;;7.47;4.87;;;11.60;99.90;;;;;;5063979;28;20614;-80
2022/10/26 00:31:38;;;;;;;7.30;5.10;;;11.60;99.90;;;;;;5074457;28;20192;-79
2022/10/26 00:34:05;;;;;;;7.23;5.37;;;11.70;99.90;;;;;;5069299;28;20575;-80
2022/10/26 00:36:34;;;;;;;8.33;5.57;;;11.70;99.90;;;;;;5054566;28;20194;-81
2022/10/26 00:39:00;;;;;;;7.30;5.10;;;11.70;99.90;;;;;;5054738;28;20204;-80
2022/10/26 00:41:30;;;;;;;7.93;4.70;;;11.70;99.90;;;;;;5054512;28;20205;-81
2022/10/26 00:43:57;;;;;;;8.60;4.53;;;11.70;99.90;;;;;;5053482;28;20198;-81
2022/10/26 00:46:27;;;;;;;6.67;4.83;;;11.70;99.90;;;;;;5054359;28;20197;-81
2022/10/26 00:48:57;;;;;;;8.13;5.27;;;11.70;99.90;;;;;;5053931;28;20809;-80
2022/10/26 00:51:29;;;;;;;7.10;4.60;;;11.70;99.90;;;;;;5055115;28;20206;-81
2022/10/26 00:53:57;;;;;;;8.43;4.97;;;11.70;99.90;;;;;;5053382;28;20224;-80
2022/10/26 00:56:24;;;;;;;10.03;5.67;;;11.80;99.90;;;;;;5054629;28;20287;-80
2022/10/26 00:58:52;;;;;;;8.10;4.87;;;11.80;99.90;;;;;;5053808;28;20194;-80
2022/10/26 01:01:18;;;;;;;10.80;5.30;;;11.80;99.90;;;;;;5058972;28;20200;-81
2022/10/26 01:03:46;;;;;;;6.93;4.17;;;11.80;99.90;;;;;;5073755;28;20217;-80
2022/10/26 01:06:14;;;;;;;7.27;4.47;;;11.80;99.90;;;;;;5071469;28;20209;-80
2022/10/26 01:08:42;;;;;;;9.33;4.60;;;11.80;99.90;;;;;;5072532;28;20232;-80
2022/10/26 01:11:12;;;;;;;7.87;5.10;;;11.80;99.90;;;;;;5063480;28;20273;-80
2022/10/26 01:13:39;;;;;;;5.67;4.60;;;11.80;99.90;;;;;;5070394;28;20201;-80
2022/10/26 01:16:16;;;;;;;7.07;5.57;;;11.90;99.90;;;;;;5072976;28;20280;-80
2022/10/26 01:18:53;;;;;;;5.20;4.37;;;11.80;99.90;;;;;;5067776;28;20205;-81
2022/10/26 01:21:47;;;;;;;5.90;4.50;;;11.80;99.90;;;;;;5062866;28;20590;-81
2022/10/26 01:24:39;;;;;;;6.93;4.30;;;11.80;99.90;;;;;;5066757;28;20208;-80
2022/10/26 01:27:18;;;;;;;4.67;4.27;;;11.80;99.90;;;;;;5073390;28;20186;-80
2022/10/26 01:30:11;;;;;;;5.23;4.40;;;11.80;99.90;;;;;;5058110;28;20220;-80
2022/10/26 01:32:45;;;;;;;4.67;4.03;;;11.70;99.90;;;;;;5053500;28;20190;-80
2022/10/26 01:35:16;;;;;;;7.47;4.73;;;11.70;99.90;;;;;;5054886;28;20490;-81
2022/10/26 01:37:48;;;;;;;5.70;4.27;;;11.70;99.90;;;;;;5052514;28;20204;-80
2022/10/26 01:40:21;;;;;;;5.70;5.10;;;11.70;99.90;;;;;;5062878;28;20216;-80
2022/10/26 01:42:53;;;;;;;6.20;4.63;;;11.70;99.90;;;;;;5072139;28;20651;-80
2022/10/26 01:45:20;;;;;;;5.67;4.93;;;11.70;99.90;;;;;;5071650;28;20605;-80
2022/10/26 01:47:51;;;;;;;7.00;4.73;;;11.70;99.90;;;;;;5073121;28;20194;-80
2022/10/26 01:50:20;;;;;;;6.07;5.17;;;11.60;99.90;;;;;;5071272;28;20288;-80
2022/10/26 01:52:49;;;;;;;8.03;5.27;;;11.60;99.90;;;;;;5066954;28;20578;-80
2022/10/26 01:55:53;;;;;;;8.93;4.63;;;11.60;99.90;;;;;;5052743;28;20226;-80
2022/10/26 01:58:46;;;;;;;6.70;5.23;;;11.70;99.90;;;;;;5052436;28;20208;-81
2022/10/26 02:01:33;;;;;;;7.90;5.70;;;11.70;99.90;;;;;;5057763;28;20204;-80
2022/10/26 02:04:08;;;;;;;8.63;6.87;;;11.70;99.90;;;;;;5072563;28;20204;-80
2022/10/26 02:06:45;;;;;;;9.30;6.40;;;11.70;99.90;;;;;;5066877;28;20200;-81
2022/10/26 02:09:19;;;;;;;9.87;6.37;;;11.70;99.90;;;;;;5052708;28;20217;-79
2022/10/26 02:11:50;;;;;;;8.27;6.57;;;11.70;99.90;;;;;;5053758;28;20198;-81
2022/10/26 02:14:23;;;;;;;8.43;6.27;;;11.70;99.90;;;;;;5072684;28;20292;-80
2022/10/26 02:16:56;;;;;;;10.93;6.47;;;11.70;99.90;;;;;;5072831;28;20189;-80
2022/10/26 02:19:33;;;;;;;9.43;6.23;;;11.70;99.90;;;;;;5071979;28;20206;-79
2022/10/26 02:22:07;;;;;;;9.60;6.10;;;11.70;99.90;;;;;;5072324;28;20289;-81
2022/10/26 02:24:36;;;;;;;6.77;5.57;;;11.70;99.90;;;;;;5055937;28;20202;-80
2022/10/26 02:27:06;;;;;;;8.07;6.03;;;11.70;99.90;;;;;;5052222;28;20192;-81
2022/10/26 02:29:34;;;;;;;9.33;5.90;;;11.70;99.90;;;;;;5052616;28;20218;-80
2022/10/26 02:32:03;;;;;;;10.00;6.60;;;11.70;99.90;;;;;;5052531;28;20208;-79
2022/10/26 02:34:33;;;;;;;9.33;6.37;;;11.70;99.90;;;;;;5060102;28;20236;-77
2022/10/26 02:37:02;;;;;;;9.10;6.00;;;11.70;99.90;;;;;;5072725;28;20204;-78
2022/10/26 02:39:33;;;;;;;11.57;7.10;;;11.70;99.90;;;;;;5071268;28;20201;-78
2022/10/26 02:42:03;;;;;;;8.30;7.27;;;11.70;99.90;;;;;;5072232;28;20803;-77
2022/10/26 02:44:33;;;;;;;12.10;6.80;;;11.70;99.90;;;;;;5071743;28;20215;-77
2022/10/26 02:47:01;;;;;;;10.63;6.47;;;11.80;99.90;;;;;;5071588;28;20201;-80
2022/10/26 02:49:29;;;;;;;13.20;7.43;;;11.80;99.90;;;;;;5071804;28;20225;-78
2022/10/26 02:52:04;;;;;;;14.17;7.57;;;11.80;99.90;;;;;;5052136;28;20233;-79
2022/10/26 02:54:36;;;;;;;13.13;6.73;;;11.80;99.90;;;;;;5051470;28;20232;-79
2022/10/26 02:57:10;;;;;;;12.07;7.33;;;11.80;99.90;;;;;;5068225;28;20677;-79
2022/10/26 02:59:40;;;;;;;11.87;7.47;;;11.90;99.90;;;;;;5071825;28;20197;-79
2022/10/26 03:02:07;;;;;;;11.50;7.20;;;11.90;99.90;;;;;;5055378;28;20301;-80
2022/10/26 03:04:35;;;;;;;10.00;6.77;;;11.90;99.90;;;;;;5052454;28;20198;-81
2022/10/26 03:07:03;;;;;;;10.37;7.10;;;11.90;99.90;;;;;;5059932;28;20288;-80
2022/10/26 03:09:30;;;;;;;12.87;6.90;;;11.90;99.90;;;;;;5071540;28;20221;-81
2022/10/26 03:11:57;;;;;;;11.83;6.87;;;12.00;99.90;;;;;;5070685;28;20228;-80
2022/10/26 03:14:24;;;;;;;9.17;6.73;;;12.00;99.90;;;;;;5071174;28;20197;-80
2022/10/26 03:16:51;;;;;;;10.43;6.60;;;12.00;99.90;;;;;;5072283;28;20223;-80
2022/10/26 03:19:18;;;;;;;12.90;7.20;;;12.00;99.90;;;;;;5069883;28;20511;-79
2022/10/26 03:21:45;;;;;;;9.93;6.37;;;12.10;99.90;;;;;;5064804;28;20201;-79
2022/10/26 03:24:13;;;;;;;8.93;6.00;;;12.00;99.90;;;;;;5064666;28;20193;-80
2022/10/26 03:26:40;;;;;;;7.57;6.33;;;12.10;99.90;;;;;;5071844;28;20196;-80
2022/10/26 03:29:07;;;;;;;7.47;6.20;;;12.10;99.90;;;;;;5061964;28;20226;-81
2022/10/26 03:31:35;;;;;;;13.33;6.63;;;12.10;99.90;;;;;;5051739;28;20202;-80
2022/10/26 03:34:02;;;;;;;8.97;6.43;;;12.10;99.90;;;;;;5061070;28;20205;-81
2022/10/26 03:36:29;;;;;;;9.33;6.63;;;12.10;99.90;;;;;;5075316;28;20193;-79
2022/10/26 03:38:56;;;;;;;8.60;5.63;;;12.20;99.90;;;;;;5074814;28;20535;-80
2022/10/26 03:41:24;;;;;;;8.70;5.60;;;12.20;99.90;;;;;;5075484;28;20199;-79
2022/10/26 03:43:51;;;;;;;8.80;5.50;;;12.20;99.90;;;;;;5073706;28;20220;-80
2022/10/26 03:46:17;;;;;;;7.10;5.43;;;12.20;99.90;;;;;;5075256;28;20278;-78
2022/10/26 03:48:44;;;;;;;10.73;5.27;;;12.20;99.90;;;;;;5075332;28;20221;-81
2022/10/26 03:51:11;;;;;;;7.83;5.03;;;12.30;99.90;;;;;;5056537;28;20212;-81
2022/10/26 03:53:38;;;;;;;9.17;6.00;;;12.30;99.90;;;;;;5055407;28;20201;-80
2022/10/26 03:56:05;;;;;;;11.83;5.83;;;12.30;99.90;;;;;;5066261;28;20205;-81
2022/10/26 03:58:34;;;;;;;8.53;5.07;;;12.30;99.90;;;;;;5075044;28;20788;-81
2022/10/26 04:01:04;;;;;;;8.30;4.93;;;12.40;99.90;;;;;;5067636;28;20288;-80
2022/10/26 04:03:30;;;;;;;6.20;4.67;;;12.40;99.90;;;;;;5054170;28;20562;-81
2022/10/26 04:06:00;;;;;;;8.23;4.53;;;12.40;99.90;;;;;;5057878;28;20210;-82
2022/10/26 04:08:27;;;;;;;9.43;5.20;;;12.40;99.90;;;;;;5057600;28;20216;-81
2022/10/26 04:10:54;;;;;;;7.40;4.47;;;12.40;99.90;;;;;;5055012;28;20293;-78
2022/10/26 04:13:21;;;;;;;7.17;4.30;;;12.40;99.90;;;;;;5073458;28;20305;-80
2022/10/26 04:15:49;;;;;;;9.67;4.13;;;12.50;99.90;;;;;;5065604;28;20560;-80
2022/10/26 04:18:16;;;;;;;7.97;4.83;;;12.50;99.90;;;;;;5055356;28;20288;-79
2022/10/26 04:20:43;;;;;;;7.40;3.93;;;12.50;99.90;;;;;;5055127;28;20205;-79
2022/10/26 04:23:12;;;;;;;7.90;3.80;;;12.50;99.90;;;;;;5055616;28;20205;-79
2022/10/26 04:25:39;;;;;;;7.97;3.37;;;12.60;99.90;;;;;;5054116;28;20551;-80
2022/10/26 04:28:08;;;;;;;6.30;3.53;;;12.60;99.90;;;;;;5058271;28;20208;-81
2022/10/26 04:30:35;;;;;;;4.90;3.80;;;12.60;99.90;;;;;;5075109;28;20502;-79
2022/10/26 04:33:04;;;;;;;6.83;3.50;;;12.60;99.90;;;;;;5074107;28;20194;-79
2022/10/26 04:35:31;;;;;;;7.70;3.70;;;12.60;99.90;;;;;;5055087;28;20206;-81
2022/10/26 04:37:59;;;;;;;6.53;3.70;;;12.60;99.90;;;;;;5056487;28;20209;-77
2022/10/26 04:40:26;;;;;;;9.17;3.83;;;12.70;99.90;;;;;;5057679;28;20543;-76
2022/10/26 04:42:53;;;;;;;6.87;3.60;;;12.70;99.90;;;;;;5054280;28;20204;-80
2022/10/26 04:45:20;;;;;;;8.60;3.40;;;12.70;99.90;;;;;;5062726;28;20197;-78
2022/10/26 04:47:47;;;;;;;8.67;3.93;;;12.70;99.90;;;;;;5074358;28;20197;-80
2022/10/26 04:50:15;;;;;;;10.33;3.60;;;12.70;99.90;;;;;;5070168;28;20214;-80
2022/10/26 04:52:42;;;;;;;5.27;3.90;;;12.70;99.90;;;;;;5054281;28;20279;-78
2022/10/26 04:55:09;;;;;;;9.00;4.40;;;12.80;99.90;;;;;;5055380;28;20305;-80
2022/10/26 04:57:36;;;;;;;10.50;3.97;;;12.80;99.90;;;;;;5073986;28;20212;-77
2022/10/26 05:00:05;;;;;;;12.83;5.03;;;12.80;99.90;;;;;;5073862;28;20601;-80
2022/10/26 05:02:32;;;;;;;8.60;4.50;;;12.80;99.90;;;;;;5058495;28;20328;-78
2022/10/26 05:04:58;;;;;;;8.07;4.20;;;12.90;99.90;;;;;;5053882;28;20202;-80
2022/10/26 05:07:27;;;;;;;10.53;4.83;;;12.90;99.90;;;;;;5054179;28;20198;-78
2022/10/26 05:09:54;;;;;;;6.17;4.30;;;12.90;99.90;;;;;;5053972;28;20229;-78
2022/10/26 05:12:21;;;;;;;9.43;4.70;;;12.90;99.90;;;;;;5058811;28;20618;-78
2022/10/26 05:14:48;;;;;;;9.17;4.70;;;12.90;99.90;;;;;;5073521;28;20204;-79
2022/10/26 05:17:15;;;;;;;9.57;4.27;;;13.00;99.90;;;;;;5061288;28;20209;-79
2022/10/26 05:19:41;;;;;;;8.37;4.13;;;13.00;99.90;;;;;;5073700;28;20203;-78
2022/10/26 05:22:08;;;;;;;7.87;4.20;;;13.00;99.90;;;;;;5055211;28;20204;-79
2022/10/26 05:24:37;;;;;;;6.27;3.97;;;13.00;99.90;;;;;;5057096;28;20201;-80
2022/10/26 05:27:03;;;;;;;8.13;4.07;;;13.00;99.90;;;;;;5061713;28;20201;-81
2022/10/26 05:29:30;;;;;;;9.10;4.17;;;13.10;99.90;;;;;;5061254;28;20221;-81
2022/10/26 05:31:57;;;;;;;6.77;4.57;;;13.10;99.90;;;;;;5053831;28;20239;-81
2022/10/26 05:34:24;;;;;;;9.03;4.80;;;13.10;99.90;;;;;;5059551;28;20319;-80
2022/10/26 05:36:53;;;;;;;8.20;4.37;;;13.10;99.90;;;;;;5072873;28;20208;-81
2022/10/26 05:39:20;;;;;;;8.03;4.03;;;13.10;99.90;;;;;;5071157;28;20205;-81
2022/10/26 05:41:48;;;;;;;8.13;4.40;;;13.10;99.90;;;;;;5072440;28;20491;-80
2022/10/26 05:44:15;;;;;;;7.03;3.80;;;13.10;99.90;;;;;;5057292;28;20206;-81
2022/10/26 05:46:42;;;;;;;6.60;4.17;;;13.10;99.90;;;;;;5065082;28;20206;-79
2022/10/26 05:49:09;;;;;;;8.57;4.03;;;13.10;99.90;;;;;;5052447;28;20492;-79
2022/10/26 05:51:36;;;;;;;9.40;3.93;;;13.20;99.90;;;;;;5064602;28;20200;-81
2022/10/26 05:54:03;;;;;;;8.93;4.03;;;13.10;99.90;;;;;;5073188;28;20217;-80
2022/10/26 05:56:35;;;;;;;6.77;4.10;;;13.20;99.90;;;;;;5058188;28;20209;-80
2022/10/26 05:59:04;;;;;;;7.60;4.27;;;13.20;99.90;;;;;;5072575;28;20509;-79
2022/10/26 06:01:43;;;;;;;5.67;3.67;;;13.20;99.90;;;;;;5070995;28;20205;-80
2022/10/26 06:04:26;;;;;;;6.03;3.70;;;13.20;99.90;;;;;;5071466;28;20205;-80
2022/10/26 06:06:54;;;;;;;6.47;3.67;;;13.20;99.90;;;;;;5066158;28;20202;-80
2022/10/26 06:09:21;;;;;;;7.00;4.17;;;13.20;99.90;;;;;;5072214;28;20586;-78
2022/10/26 06:11:49;;;;;;;5.33;3.77;;;13.20;99.90;;;;;;5071996;28;20193;-80
2022/10/26 06:14:18;;;;;;;9.43;3.33;;;13.20;99.90;;;;;;5070814;28;20223;-80
2022/10/26 06:17:03;;;;;;;7.10;3.53;;;13.10;99.90;;;;;;5071652;28;20485;-80
2022/10/26 06:19:45;;;;;;;8.73;3.77;;;13.20;99.90;;;;;;5061376;28;20602;-79
2022/10/26 06:22:25;;;;;;;9.80;3.47;;;13.10;99.90;;;;;;5051661;28;20198;-79
2022/10/26 06:25:03;;;;;;;8.80;4.10;;;13.10;99.90;;;;;;5064541;28;20211;-81
2022/10/26 06:27:40;;;;;;;6.03;3.57;;;13.10;99.90;;;;;;5072112;28;20645;-81
2022/10/26 06:30:10;;;;;;;7.93;4.17;;;13.10;99.90;;;;;;5059633;28;20244;-80
2022/10/26 06:32:38;;;;;;;7.80;3.87;;;13.10;99.90;;;;;;5051930;28;20205;-81
2022/10/26 06:35:21;;;;;;;11.60;4.20;;;13.10;99.90;;;;;;5053128;28;20210;-79
2022/10/26 06:37:49;;;;;;;8.93;3.97;;;13.10;99.90;;;;;;5051454;28;20194;-80
2022/10/26 06:40:17;;;;;;;6.13;3.87;;;13.10;99.90;;;;;;5055888;28;20193;-80
2022/10/26 06:42:45;;;;;;;6.93;3.80;;;13.10;99.90;;;;;;5072029;28;20203;-81
2022/10/26 06:45:15;;;;;;;5.87;4.20;;;13.10;99.90;;;;;;5070446;28;20193;-80
2022/10/26 06:47:52;;;;;;;7.63;4.53;;;13.10;99.90;;;;;;5071937;28;20493;-81
2022/10/26 06:50:29;;;;;;;6.87;3.93;;;13.10;99.90;;;;;;5069385;28;20201;-81
2022/10/26 06:53:04;;;;;;;8.33;3.90;;;13.10;99.90;;;;;;5052409;28;20288;-81
2022/10/26 06:55:40;;;;;;;8.67;4.50;;;13.10;99.90;;;;;;5052025;28;20636;-80
2022/10/26 06:58:10;;;;;;;7.40;3.63;;;13.10;99.90;;;;;;5053835;28;20284;-81
2022/10/26 07:00:40;;;;;;;7.10;3.90;;;13.10;99.90;;;;;;5052265;28;20204;-80
2022/10/26 07:03:07;;;;;;;8.77;4.27;;;13.10;99.90;;;;;;5051939;28;20233;-81
2022/10/26 07:05:35;;;;;;;7.00;4.40;;;13.10;99.90;;;;;;5063527;28;20205;-82
2022/10/26 07:08:02;;;;;;;8.67;4.50;;;13.10;99.90;;;;;;5066934;28;20209;-81
2022/10/26 07:10:29;;;;;;;7.67;4.03;;;13.10;99.90;;;;;;5075890;28;20228;-80
2022/10/26 07:12:55;;;;;;;8.37;4.50;;;13.20;99.90;;;;;;5071384;28;20200;-81
2022/10/26 07:15:22;;;;;;;9.53;5.13;;;13.20;99.90;;;;;;5072709;28;20615;-80
2022/10/26 07:17:51;;;;;;;9.90;4.70;;;13.20;99.90;;;;;;5073002;28;20200;-80
2022/10/26 07:20:20;;;;;;;11.23;4.90;;;13.20;99.90;;;;;;5074542;28;20904;-80
2022/10/26 07:22:52;;;;;;;10.53;4.87;;;13.20;99.90;;;;;;5073727;28;20204;-81
2022/10/26 07:25:19;;;;;;;8.90;4.40;;;13.20;99.90;;;;;;5073011;28;20209;-81
2022/10/26 07:27:46;;;;;;;7.70;4.77;;;13.30;99.90;;;;;;5063791;28;20202;-81
2022/10/26 07:30:13;;;;;;;8.77;4.90;;;13.30;99.90;;;;;;5055827;28;20222;-81
2022/10/26 07:32:40;;;;;;;7.33;4.43;;;13.30;99.90;;;;;;5055665;28;20190;-82
2022/10/26 07:35:09;;;;;;;8.73;4.73;;;13.30;99.90;;;;;;5056118;28;20310;-82
2022/10/26 07:37:36;;;;;;;7.40;4.50;;;13.30;99.90;;;;;;5055633;28;20226;-80
2022/10/26 07:40:03;;;;;;;8.93;4.30;;;13.30;99.90;;;;;;5055465;28;20271;-80
2022/10/26 07:42:30;;;;;;;6.43;4.77;;;13.40;99.90;;;;;;5054938;28;20190;-81
2022/10/26 07:44:57;;;;;;;7.80;4.87;;;13.40;99.90;;;;;;5055395;28;20197;-81
2022/10/26 07:47:24;;;;;;;8.13;4.63;;;13.40;99.90;;;;;;5055241;28;20202;-81
2022/10/26 07:49:51;;;;;;;8.80;5.10;;;13.50;99.90;;;;;;5055368;28;20226;-80
2022/10/26 07:52:19;;;;;;;6.10;4.73;;;13.50;99.90;;;;;;5075335;28;20296;-82
2022/10/26 07:54:46;;;;;;;7.90;4.50;;;13.50;99.90;;;;;;5075011;28;20217;-80
2022/10/26 07:57:15;;;;;;;9.17;4.33;;;13.50;99.90;;;;;;5063767;28;20202;-81
2022/10/26 07:59:42;;;;;;;9.77;4.40;;;13.60;99.90;;;;;;5054893;28;20197;-80
2022/10/26 08:02:09;;;;;;;8.90;4.10;;;13.70;99.90;;;;;;5056090;28;20238;-81
2022/10/26 08:04:36;;;;;;;6.87;3.77;;;13.80;99.90;;;;;;5054371;28;20190;-80
2022/10/26 08:07:03;;;;;;;6.77;3.97;;;13.80;99.90;;;;;;5054662;28;20198;-81
2022/10/26 08:09:32;;;;;;;7.53;4.00;;;13.90;99.90;;;;;;5054048;28;20206;-80
2022/10/26 08:11:58;;;;;;;6.73;4.00;;;14.00;99.90;;;;;;5055921;28;20230;-80
2022/10/26 08:14:25;;;;;;;5.40;3.77;;;14.10;99.90;;;;;;5054182;28;20284;-80
2022/10/26 08:16:52;;;;;;;7.10;4.20;;;14.20;99.90;;;;;;5053713;28;20202;-80
2022/10/26 08:19:19;;;;;;;5.77;4.17;;;14.20;99.90;;;;;;5054243;28;20335;-79
2022/10/26 08:21:46;;;;;;;6.90;3.70;;;14.30;99.90;;;;;;5055467;28;20574;-80
2022/10/26 08:24:13;;;;;;;7.77;4.30;;;14.40;99.90;;;;;;5053790;28;20202;-83
2022/10/26 08:26:41;;;;;;;6.10;3.80;;;14.50;99.90;;;;;;5053912;28;20206;-82
2022/10/26 08:29:08;;;;;;;9.20;4.30;;;14.50;99.90;;;;;;5071838;28;20205;-79
2022/10/26 08:31:35;;;;;;;8.03;3.90;;;14.60;99.90;;;;;;5071988;28;20229;-81
2022/10/26 08:34:03;;;;;;;8.90;4.03;;;14.70;99.90;;;;;;5058284;28;20204;-80
2022/10/26 08:36:30;;;;;;;5.85;3.88;;;14.70;99.90;;;;;;5054049;28;20209;-81
2022/10/26 08:38:57;;;;;;;8.02;4.07;;;14.80;99.90;;;;;;5062766;28;20223;-81
2022/10/26 08:41:33;;;;;;;8.43;3.70;;;14.90;99.90;;;;;;5073173;28;20201;-79
2022/10/26 08:44:10;;;;;;;9.17;4.43;;;14.90;99.90;;;;;;5072350;28;20515;-80
2022/10/26 08:46:42;;;;;;;10.30;4.07;;;15.00;99.90;;;;;;5073521;28;20177;-80
2022/10/26 08:49:19;;;;;;;6.77;3.43;;;15.00;99.90;;;;;;5064652;28;20204;-80
2022/10/26 08:51:47;;;;;;;7.23;3.60;;;15.00;99.90;;;;;;5052621;28;20216;-79
2022/10/26 08:54:19;;;;;;;5.70;3.45;;;15.10;99.90;;;;;;5053735;28;20245;-81
2022/10/26 08:56:50;;;;;;;8.27;3.17;;;15.20;99.90;;;;;;5053207;28;20202;-79
2022/10/26 08:59:34;;;;;;;6.40;3.10;;;15.30;99.90;;;;;;5052109;28;20194;-81
2022/10/26 09:02:01;;;;;;;5.60;3.38;;;15.40;99.90;;;;;;5052509;28;20648;-80
2022/10/26 09:04:30;;;;;;;5.15;3.92;;;15.60;99.90;;;;;;5051706;28;20267;-80
2022/10/26 09:07:02;;;;;;;4.23;3.00;;;15.70;99.90;;;;;;5067364;28;20516;-79
2022/10/26 09:09:39;;;;;;;7.13;3.85;;;15.80;99.90;;;;;;5072332;28;20195;-80
2022/10/26 09:12:14;;;;;;;7.67;3.33;;;15.90;99.90;;;;;;5056184;28;20271;-79
2022/10/26 09:14:54;;;;;;;9.18;3.63;;;15.90;99.90;;;;;;5050819;28;20694;-80
2022/10/26 09:17:35;;;;;;;9.70;3.58;;;15.90;99.90;;;;;;5065109;28;20207;-79
2022/10/26 09:20:25;;;;;;;6.50;2.83;;;15.90;99.90;;;;;;5068002;28;20198;-81
2022/10/26 09:22:59;;;;;;;8.93;3.38;;;16.00;99.90;;;;;;5053132;28;20343;-79
2022/10/26 09:25:30;;;;;;;6.40;3.28;;;16.00;99.90;;;;;;5052428;28;20640;-79
2022/10/26 09:28:00;;;;;;;4.88;3.08;;;16.10;99.90;;;;;;5052922;28;20223;-80
2022/10/26 09:30:30;;;;;;;7.18;2.85;;;16.20;99.90;;;;;;5051398;28;20260;-81
2022/10/26 09:33:00;;;;;;;4.30;2.80;;;16.20;99.90;;;;;;5058057;28;20742;-82
2022/10/26 09:35:31;;;;;;;5.80;3.10;;;16.20;99.90;;;;;;5071946;28;20209;-82
2022/10/26 09:38:03;;;;;;;6.13;3.25;;;16.30;99.90;;;;;;5071423;28;20215;-80
2022/10/26 09:40:37;;;;;;;9.13;3.70;;;16.40;99.90;;;;;;5072280;28;20182;-79
2022/10/26 09:43:10;;;;;;;3.67;2.50;;;16.40;99.90;;;;;;5065889;28;20194;-80
2022/10/26 09:45:42;;;;;;;6.10;3.28;;;16.50;99.90;;;;;;5071216;28;20240;-82
2022/10/26 09:48:15;;;;;;;5.75;3.20;;;16.50;99.90;;;;;;5071800;28;20197;-80
2022/10/26 09:50:46;;;;;;;6.18;3.45;;;16.60;99.90;;;;;;5072066;28;20213;-79
2022/10/26 09:53:13;;;;;;;5.40;2.90;;;16.70;99.90;;;;;;5051943;28;20194;-81
2022/10/26 09:55:43;;;;;;;6.20;2.92;;;16.70;99.90;;;;;;5051728;28;20225;-80
2022/10/26 09:58:15;;;;;;;8.27;2.90;;;16.80;99.90;;;;;;5051458;28;20612;-80
2022/10/26 10:00:45;;;;;;;8.52;3.00;;;16.90;99.90;;;;;;5052518;28;20602;-79
2022/10/26 10:03:20;;;;;;;4.95;2.70;;;17.00;99.90;;;;;;5013436;28;1092509;-80
2022/10/26 10:05:47;;;;;;;6.43;3.10;;;17.00;99.90;;;;;;5052718;28;20196;-79
2022/10/26 10:08:20;;;;;;;8.70;2.80;;;17.10;99.90;;;;;;5052480;28;20280;-79
2022/10/26 10:10:58;;;;;;;5.80;2.65;;;17.20;99.90;;;;;;5059576;28;20221;-80
2022/10/26 10:13:28;;;;;;;8.07;2.95;;;17.30;99.90;;;;;;5072498;28;20262;-79
2022/10/26 10:16:01;;;;;;;8.23;2.83;;;17.40;99.90;;;;;;5058837;28;20202;-80
2022/10/26 10:18:28;;;;;;;7.70;2.58;;;17.40;99.90;;;;;;5052016;28;20511;-79
2022/10/26 10:20:57;;;;;;;11.60;3.35;;;17.50;99.90;;;;;;5053337;28;20204;-80
2022/10/26 10:23:27;;;;;;;5.97;2.92;;;17.60;99.90;;;;;;5051448;28;20637;-80
2022/10/26 10:26:09;;;;;;;6.43;2.67;;;17.70;99.90;;;;;;5052505;28;20205;-79
2022/10/26 10:28:37;;;;;;;13.02;3.53;;;17.70;99.90;;;;;;5051992;28;20285;-80
2022/10/26 10:31:17;;;;;;;9.70;2.92;;;17.80;99.90;;;;;;5051508;28;20221;-80
2022/10/26 10:33:45;;;;;;;9.85;2.80;;;17.70;99.90;;;;;;5052545;28;20197;-79
2022/10/26 10:36:16;;;;;;;8.90;3.00;;;17.70;99.90;;;;;;5051976;28;20205;-81
2022/10/26 10:38:45;;;;;;;5.95;3.20;;;17.80;99.90;;;;;;5051233;28;20197;-79
2022/10/26 10:41:18;;;;;;;14.23;3.63;;;17.80;99.90;;;;;;5052096;28;20202;-78
2022/10/26 10:43:48;;;;;;;11.18;3.00;;;17.80;99.90;;;;;;5052372;28;20289;-80
2022/10/26 10:46:21;;;;;;;8.70;2.58;;;17.80;99.90;;;;;;5050234;28;20285;-79
2022/10/26 10:48:51;;;;;;;7.13;3.08;;;17.80;99.90;;;;;;5051167;28;20205;-80
2022/10/26 10:51:21;;;;;;;7.63;3.13;;;17.90;99.90;;;;;;5050647;28;20729;-79
2022/10/26 10:53:50;;;;;;;7.78;2.53;;;18.00;99.90;;;;;;5066892;28;20296;-79
2022/10/26 10:56:27;;;;;;;8.95;3.15;;;18.10;99.90;;;;;;5070932;28;20215;-79
2022/10/26 10:59:10;;;;;;;6.85;2.45;;;18.20;99.90;;;;;;5055571;28;20201;-79
2022/10/26 11:01:44;;;;;;;5.78;2.47;;;18.40;99.90;;;;;;5049579;28;20186;-79
2022/10/26 11:04:38;;;;;;;6.70;2.65;;;18.40;99.90;;;;;;5052115;28;20263;-80
2022/10/26 11:07:07;;;;;;;7.90;2.65;;;18.50;99.90;;;;;;5050933;28;20206;-81
2022/10/26 11:09:39;;;;;;;12.90;3.17;;;18.60;99.90;;;;;;5065889;28;20213;-79
2022/10/26 11:12:13;;;;;;;9.40;2.75;;;18.60;99.90;;;;;;5070919;28;20217;-78
2022/10/26 11:14:44;;;;;;;9.70;3.30;;;18.60;99.90;;;;;;5053257;28;20315;-79
2022/10/26 11:17:19;;;;;;;6.63;2.55;;;18.70;99.90;;;;;;5051255;28;20198;-79
2022/10/26 11:19:53;;;;;;;8.05;2.55;;;18.70;99.90;;;;;;5051518;28;20208;-78
2022/10/26 11:22:25;;;;;;;8.80;2.42;;;18.80;99.90;;;;;;5051629;28;20190;-78
2022/10/26 11:24:58;;;;;;;6.82;2.53;;;18.90;99.90;;;;;;5051280;28;20194;-78
2022/10/26 11:27:30;;;;;;;5.97;2.40;;;19.00;99.90;;;;;;5049138;28;20198;-78
2022/10/26 11:30:03;;;;;;;6.57;1.77;;;19.10;99.90;;;;;;5051022;28;20216;-79
2022/10/26 11:32:36;;;;;;;9.60;2.22;;;19.20;99.90;;;;;;5050178;28;20214;-78
2022/10/26 11:35:12;;;;;;;7.20;1.88;;;19.30;99.90;;;;;;5049368;28;20253;-78
2022/10/26 11:37:45;;;;;;;8.20;2.00;;;19.30;99.90;;;;;;5049880;28;20263;-78
2022/10/26 11:40:22;;;;;;;5.10;1.67;;;19.40;99.90;;;;;;5050268;28;20202;-79
2022/10/26 11:42:54;;;;;;;8.23;1.95;;;19.40;99.90;;;;;;5070351;28;20208;-79
2022/10/26 11:45:25;;;;;;;5.03;1.98;;;19.50;99.90;;;;;;5068335;28;20212;-83
2022/10/26 11:48:02;;;;;;;5.15;1.95;;;19.50;99.90;;;;;;5069185;28;20273;-79
2022/10/26 11:50:34;;;;;;;5.50;2.10;;;19.50;99.90;;;;;;5067739;28;20201;-81
2022/10/26 11:53:08;;;;;;;6.25;1.90;;;19.50;99.90;;;;;;5049370;28;20535;-79
2022/10/26 11:55:35;;;;;;;9.23;2.17;;;19.50;99.90;;;;;;5052201;28;20225;-80
2022/10/26 11:58:04;;;;;;;6.72;2.00;;;19.60;99.90;;;;;;5072551;28;20202;-78
2022/10/26 12:00:33;;;;;;;7.40;2.33;;;19.60;99.90;;;;;;5073919;28;20202;-79
2022/10/26 12:03:09;;;;;;;5.93;2.40;;;19.50;99.90;;;;;;5067607;28;20229;-80
2022/10/26 12:05:45;;;;;;;9.80;2.90;;;19.50;99.90;;;;;;5073562;28;20207;-80
2022/10/26 12:08:17;;;;;;;6.75;2.53;;;19.50;99.90;;;;;;5062657;28;20541;-80
2022/10/26 12:10:49;;;;;;;7.63;2.63;;;19.50;99.90;;;;;;5053825;28;20194;-80
2022/10/26 12:13:26;;;;;;;7.60;1.98;;;19.50;99.90;;;;;;5054232;28;20232;-79
2022/10/26 12:16:00;;;;;;;7.70;2.50;;;19.40;99.90;;;;;;5053732;28;20559;-78
2022/10/26 12:18:37;;;;;;;7.82;2.47;;;19.40;99.90;;;;;;5055003;28;20303;-80
2022/10/26 12:21:08;;;;;;;7.30;2.10;;;19.40;99.90;;;;;;5053408;28;20281;-81
2022/10/26 12:23:37;;;;;;;9.23;2.47;;;19.40;99.90;;;;;;5058309;28;20706;-80
2022/10/26 12:26:37;;;;;;;9.82;2.42;;;19.40;99.90;;;;;;5073039;28;20208;-79
2022/10/26 12:29:35;;;;;;;5.45;2.50;;;19.30;99.90;;;;;;4965454;28;20853;-79
2022/10/26 12:32:02;;;;;;;13.55;2.40;;;19.30;99.90;;;;;;4952839;29;20222;-79
2022/10/26 12:35:00;;;;;;;8.10;2.83;;;19.30;99.90;;;;;;5019729;28;20200;-78
2022/10/26 12:37:36;;;;;;;9.48;3.00;;;19.40;99.90;;;;;;5053371;28;20252;-79
2022/10/26 12:40:38;;;;;;;7.25;2.40;;;19.40;99.90;;;;;;5063957;28;20203;-80
2022/10/26 12:43:33;;;;;;;7.40;2.72;;;19.30;99.90;;;;;;5074049;28;20193;-78
2022/10/26 12:46:40;;;;;;;11.23;2.80;;;19.20;99.90;;;;;;5056849;28;20209;-79
2022/10/26 12:49:56;;;;;;;10.07;2.75;;;19.20;99.90;;;;;;5053952;28;20194;-79
2022/10/26 12:52:52;;;;;;;13.10;2.70;;;19.20;99.90;;;;;;5053507;28;20631;-79
2022/10/26 12:56:04;;;;;;;6.93;2.58;;;19.20;99.90;;;;;;5052382;28;20221;-80
2022/10/26 12:59:09;;;;;;;9.88;2.50;;;19.20;99.90;;;;;;5053391;28;20237;-81
2022/10/26 13:02:15;;;;;;;11.80;2.65;;;19.20;99.90;;;;;;5053411;28;20198;-80
2022/10/26 13:05:24;;;;;;;9.73;2.67;;;19.10;99.90;;;;;;5051096;28;20198;-79
2022/10/26 13:08:00;;;;;;;6.80;2.50;;;19.10;99.90;;;;;;5069519;28;20206;-80
2022/10/26 13:10:28;;;;;;;7.15;2.67;;;19.10;99.90;;;;;;5073500;28;20293;-79